createdAt,value
2018-06-13T00:02:17.001Z,1.60
2018-06-13T00:04:46.337Z,1.93
2018-06-13T00:07:15.686Z,1.83
2018-06-13T00:09:45.043Z,1.63
2018-06-13T00:12:14.395Z,2.20
2018-06-13T00:14:43.731Z,2.30
2018-06-13T00:17:13.068Z,2.08
2018-06-13T00:19:42.461Z,2.10
2018-06-13T00:22:11.804Z,1.80
2018-06-13T00:24:45.313Z,2.10
2018-06-13T00:27:14.640Z,2.07
2018-06-13T00:29:43.969Z,1.90
2018-06-13T00:32:13.336Z,2.00
2018-06-13T00:34:42.681Z,2.00
2018-06-13T00:37:12.085Z,2.13
2018-06-13T00:39:41.372Z,2.10
2018-06-13T00:42:10.689Z,2.00
2018-06-13T00:44:40.045Z,2.00
2018-06-13T00:47:09.436Z,1.75
2018-06-13T00:49:38.768Z,1.80
2018-06-13T00:52:08.104Z,2.03
2018-06-13T00:54:37.475Z,2.10
2018-06-13T00:57:06.807Z,2.33
2018-06-13T00:59:36.179Z,2.00
2018-06-13T01:02:05.523Z,2.57
2018-06-13T01:04:34.856Z,2.23
2018-06-13T01:07:04.194Z,2.10
2018-06-13T01:09:33.537Z,2.10
2018-06-13T01:12:02.856Z,1.90
2018-06-13T01:14:32.200Z,2.57
2018-06-13T01:17:01.546Z,2.20
2018-06-13T01:19:30.939Z,2.00
2018-06-13T01:22:00.267Z,2.80
2018-06-13T01:24:29.622Z,2.00
2018-06-13T01:26:58.960Z,1.90
2018-06-13T01:29:28.305Z,2.10
2018-06-13T01:31:58.649Z,2.27
2018-06-13T01:34:27.956Z,2.07
2018-06-13T01:36:58.279Z,2.20
2018-06-13T01:39:27.619Z,1.90
2018-06-13T01:41:56.973Z,2.20
2018-06-13T01:44:26.300Z,2.30
2018-06-13T01:46:55.629Z,1.90
2018-06-13T01:49:25.002Z,2.03
2018-06-13T01:51:54.378Z,2.47
2018-06-13T01:54:23.709Z,1.97
2018-06-13T01:56:53.027Z,1.67
2018-06-13T01:59:22.358Z,2.13
2018-06-13T02:01:51.759Z,2.20
2018-06-13T02:04:21.143Z,2.17
2018-06-13T02:06:50.493Z,2.30
2018-06-13T02:09:19.856Z,2.00
2018-06-13T02:11:49.239Z,2.00
2018-06-13T02:14:18.600Z,2.00
2018-06-13T02:16:47.981Z,2.10
2018-06-13T02:19:17.321Z,2.33
2018-06-13T02:21:47.279Z,2.40
2018-06-13T02:24:16.502Z,2.10
2018-06-13T02:26:45.836Z,2.50
2018-06-13T02:29:15.176Z,2.20
2018-06-13T02:31:44.551Z,2.00
2018-06-13T02:34:13.884Z,2.13
2018-06-13T02:36:43.233Z,2.17
2018-06-13T02:39:12.559Z,2.10
2018-06-13T02:41:43.905Z,2.63
2018-06-13T02:44:13.249Z,2.10
2018-06-13T02:46:42.582Z,2.40
2018-06-13T02:49:11.934Z,2.07
2018-06-13T02:51:41.266Z,2.17
2018-06-13T02:54:10.636Z,2.17
2018-06-13T02:56:39.985Z,2.17
2018-06-13T02:59:09.330Z,2.27
2018-06-13T03:01:38.672Z,2.10
2018-06-13T03:04:08.007Z,2.13
2018-06-13T03:06:37.348Z,1.80
2018-06-13T03:09:08.672Z,2.10
2018-06-13T03:11:37.985Z,2.50
2018-06-13T03:14:07.047Z,2.10
2018-06-13T03:16:36.388Z,2.00
2018-06-13T03:19:05.811Z,2.13
2018-06-13T03:21:35.136Z,2.20
2018-06-13T03:24:04.489Z,2.00
2018-06-13T03:26:33.817Z,1.70
2018-06-13T03:29:03.151Z,2.30
2018-06-13T03:31:32.486Z,2.13
2018-06-13T03:34:01.868Z,2.00
2018-06-13T03:36:31.196Z,2.00
2018-06-13T03:39:00.538Z,2.23
2018-06-13T03:41:29.884Z,2.30
2018-06-13T03:43:59.232Z,2.33
2018-06-13T03:46:28.549Z,2.23
2018-06-13T03:48:57.948Z,1.53
2018-06-13T03:51:27.268Z,2.20
2018-06-13T03:53:56.603Z,2.50
2018-06-13T03:56:25.936Z,3.07
2018-06-13T03:58:55.253Z,2.50
2018-06-13T04:01:24.618Z,2.50
2018-06-13T04:03:53.959Z,2.83
2018-06-13T04:06:23.330Z,2.50
2018-06-13T04:08:52.672Z,3.70
2018-06-13T04:11:22.036Z,3.60
2018-06-13T04:13:51.442Z,3.80
2018-06-13T04:16:20.767Z,3.13
2018-06-13T04:18:50.146Z,3.57
2018-06-13T04:21:19.504Z,3.43
2018-06-13T04:23:48.927Z,3.00
2018-06-13T04:26:18.269Z,3.20
2018-06-13T04:28:47.667Z,2.40
2018-06-13T04:31:16.955Z,2.87
2018-06-13T04:33:46.325Z,2.67
2018-06-13T04:36:15.708Z,2.30
2018-06-13T04:38:45.042Z,2.57
2018-06-13T04:41:14.413Z,2.23
2018-06-13T04:43:43.733Z,2.50
2018-06-13T04:46:13.056Z,2.03
2018-06-13T04:48:42.435Z,2.60
2018-06-13T04:51:11.784Z,2.30
2018-06-13T04:53:41.135Z,2.30
2018-06-13T04:56:10.472Z,2.20
2018-06-13T04:58:39.825Z,2.13
2018-06-13T05:01:11.153Z,1.90
2018-06-13T05:03:40.485Z,2.07
2018-06-13T05:06:09.826Z,1.70
2018-06-13T05:08:39.241Z,2.00
2018-06-13T05:11:08.591Z,2.00
2018-06-13T05:13:38.016Z,1.67
2018-06-13T05:16:07.348Z,1.40
2018-06-13T05:18:36.724Z,1.90
2018-06-13T05:21:06.077Z,1.30
2018-06-13T05:23:35.414Z,1.57
2018-06-13T05:26:04.813Z,1.93
2018-06-13T05:28:34.151Z,1.40
2018-06-13T05:31:03.498Z,1.57
2018-06-13T05:33:32.908Z,1.40
2018-06-13T05:36:02.258Z,1.67
2018-06-13T05:38:31.586Z,1.40
2018-06-13T05:41:00.924Z,1.20
2018-06-13T05:43:30.276Z,1.07
2018-06-13T05:45:59.707Z,1.23
2018-06-13T05:48:29.037Z,1.02
2018-06-13T05:50:58.405Z,1.40
2018-06-13T05:53:27.744Z,1.20
2018-06-13T05:55:59.129Z,1.00
2018-06-13T05:58:28.446Z,0.80
2018-06-13T06:00:57.850Z,1.10
2018-06-13T06:03:27.193Z,0.70
2018-06-13T06:05:56.549Z,0.83
2018-06-13T06:08:25.892Z,0.80
2018-06-13T06:10:55.233Z,0.83
2018-06-13T06:13:24.621Z,0.90
2018-06-13T06:15:53.996Z,1.00
2018-06-13T06:18:23.372Z,0.90
2018-06-13T06:20:52.689Z,0.83
2018-06-13T06:23:22.056Z,0.70
2018-06-13T06:25:51.397Z,0.80
2018-06-13T06:28:20.754Z,0.93
2018-06-13T06:30:50.136Z,0.90
2018-06-13T06:33:19.478Z,1.10
2018-06-13T06:35:48.949Z,1.80
2018-06-13T06:38:18.281Z,1.10
2018-06-13T06:40:47.702Z,1.00
2018-06-13T06:43:17.033Z,0.97
2018-06-13T06:45:46.404Z,1.03
2018-06-13T06:48:15.752Z,1.40
2018-06-13T06:50:45.093Z,1.20
2018-06-13T06:53:14.421Z,1.00
2018-06-13T06:55:43.853Z,1.20
2018-06-13T06:58:13.258Z,1.23
2018-06-13T07:00:42.593Z,1.10
2018-06-13T07:03:11.927Z,1.20
2018-06-13T07:05:41.269Z,1.40
2018-06-13T07:08:10.614Z,1.23
2018-06-13T07:10:39.963Z,1.50
2018-06-13T07:13:09.337Z,1.40
2018-06-13T07:15:38.665Z,1.10
2018-06-13T07:18:07.973Z,1.10
2018-06-13T07:20:37.338Z,1.00
2018-06-13T07:23:06.677Z,1.20
2018-06-13T07:25:36.013Z,1.10
2018-06-13T07:28:05.332Z,1.20
2018-06-13T07:30:34.663Z,1.20
2018-06-13T07:33:04.022Z,1.50
2018-06-13T07:35:33.339Z,1.50
2018-06-13T07:38:02.699Z,1.47
2018-06-13T07:40:32.017Z,1.10
2018-06-13T07:43:01.369Z,1.07
2018-06-13T07:45:30.715Z,1.30
2018-06-13T07:48:00.031Z,1.20
2018-06-13T07:50:29.402Z,1.50
2018-06-13T07:52:58.728Z,1.40
2018-06-13T07:55:28.096Z,1.67
2018-06-13T07:57:57.457Z,1.40
2018-06-13T08:00:26.836Z,1.67
2018-06-13T08:02:56.176Z,1.70
2018-06-13T08:05:25.504Z,2.13
2018-06-13T08:07:54.904Z,1.90
2018-06-13T08:10:24.302Z,1.70
2018-06-13T08:12:53.612Z,2.20
2018-06-13T08:15:22.999Z,1.73
2018-06-13T08:17:52.329Z,1.70
2018-06-13T08:20:21.688Z,1.50
2018-06-13T08:22:51.025Z,0.90
2018-06-13T08:25:20.397Z,1.27
2018-06-13T08:27:51.839Z,1.52
2018-06-13T08:30:21.171Z,1.00
2018-06-13T08:32:50.643Z,0.90
2018-06-13T08:35:20.033Z,1.53
2018-06-13T08:37:49.384Z,1.70
2018-06-13T08:40:18.735Z,1.40
2018-06-13T08:42:48.097Z,1.70
2018-06-13T08:45:17.437Z,1.80
2018-06-13T08:47:46.812Z,1.67
2018-06-13T08:50:16.159Z,1.33
2018-06-13T08:52:45.517Z,0.83
2018-06-13T08:55:14.854Z,1.60
2018-06-13T08:57:44.185Z,1.20
2018-06-13T09:00:13.544Z,1.43
2018-06-13T09:02:42.904Z,0.43
2018-06-13T09:05:12.307Z,1.00
2018-06-13T09:07:41.743Z,1.17
2018-06-13T09:10:11.087Z,2.15
2018-06-13T09:12:40.452Z,0.97
2018-06-13T09:15:09.813Z,1.13
2018-06-13T09:17:39.196Z,1.20
2018-06-13T09:20:10.198Z,1.30
2018-06-13T09:22:39.549Z,1.23
2018-06-13T09:25:08.892Z,1.70
2018-06-13T09:27:38.217Z,1.80
2018-06-13T09:30:07.564Z,1.83
2018-06-13T09:32:36.896Z,0.70
2018-06-13T09:35:06.305Z,1.80
2018-06-13T09:37:36.990Z,0.73
2018-06-13T09:40:06.281Z,1.57
2018-06-13T09:42:35.625Z,1.00
2018-06-13T09:45:05.036Z,1.60
2018-06-13T09:47:34.359Z,1.10
2018-06-13T09:50:03.773Z,0.53
2018-06-13T09:52:33.068Z,0.70
2018-06-13T09:55:03.473Z,0.60
2018-06-13T09:57:32.821Z,0.60
2018-06-13T10:00:07.576Z,0.60
2018-06-13T10:02:37.342Z,0.60
2018-06-13T10:05:07.460Z,0.40
2018-06-13T10:07:43.084Z,0.40
2018-06-13T10:10:12.464Z,0.40
2018-06-13T10:12:41.917Z,0.60
2018-06-13T10:15:11.264Z,0.53
2018-06-13T10:17:40.608Z,0.40
2018-06-13T10:20:09.957Z,0.67
2018-06-13T10:22:39.332Z,0.77
2018-06-13T10:25:08.658Z,0.97
2018-06-13T10:27:39.040Z,0.83
2018-06-13T10:30:08.477Z,0.50
2018-06-13T10:32:37.811Z,0.73
2018-06-13T10:35:07.205Z,0.73
2018-06-13T10:37:36.734Z,0.63
2018-06-13T10:40:06.560Z,0.40
2018-06-13T10:42:35.879Z,0.67
2018-06-13T10:45:05.289Z,0.50
2018-06-13T10:47:34.642Z,0.60
2018-06-13T10:50:04.001Z,0.90
2018-06-13T10:52:33.350Z,0.60
2018-06-13T10:55:02.701Z,0.77
2018-06-13T10:57:32.083Z,0.80
2018-06-13T11:00:01.421Z,0.70
2018-06-13T11:02:30.757Z,0.83
2018-06-13T11:05:00.092Z,0.90
2018-06-13T11:07:29.411Z,0.70
2018-06-13T11:09:58.809Z,0.80
2018-06-13T11:12:34.069Z,0.93
2018-06-13T11:15:03.432Z,1.30
2018-06-13T11:17:32.785Z,1.20
2018-06-13T11:20:02.116Z,1.03
2018-06-13T11:22:31.441Z,1.60
2018-06-13T11:25:00.817Z,1.20
2018-06-13T11:27:30.124Z,1.20
2018-06-13T11:29:59.488Z,1.57
2018-06-13T11:32:28.817Z,0.93
2018-06-13T11:34:58.160Z,0.57
2018-06-13T11:37:28.084Z,0.70
2018-06-13T11:39:57.449Z,0.63
2018-06-13T11:42:26.788Z,0.70
2018-06-13T11:44:56.140Z,0.50
2018-06-13T11:47:25.468Z,0.50
2018-06-13T11:49:54.836Z,0.47
2018-06-13T11:52:24.153Z,0.50
2018-06-13T11:54:53.522Z,0.53
2018-06-13T11:57:22.886Z,0.60
2018-06-13T11:59:52.280Z,0.70
2018-06-13T12:02:21.620Z,0.60
2018-06-13T12:04:51.101Z,0.70
2018-06-13T12:07:20.469Z,0.60
2018-06-13T12:09:49.803Z,0.47
2018-06-13T12:12:27.086Z,0.70
2018-06-13T12:14:56.448Z,0.45
2018-06-13T12:17:25.805Z,0.80
2018-06-13T12:19:55.160Z,0.60
2018-06-13T12:22:24.497Z,0.47
2018-06-13T12:24:53.852Z,0.73
2018-06-13T12:27:23.207Z,0.60
2018-06-13T12:29:52.574Z,0.60
2018-06-13T12:32:21.912Z,0.60
2018-06-13T12:34:51.260Z,0.67
2018-06-13T12:37:20.649Z,0.83
2018-06-13T12:39:49.976Z,0.80
2018-06-13T12:42:19.340Z,1.03
2018-06-13T12:44:48.703Z,1.13
2018-06-13T12:47:18.059Z,1.13
2018-06-13T12:49:47.394Z,1.35
2018-06-13T12:52:16.738Z,1.17
2018-06-13T12:54:46.154Z,1.37
2018-06-13T12:57:15.499Z,1.37
2018-06-13T12:59:44.828Z,1.73
2018-06-13T13:02:14.161Z,1.67
2018-06-13T13:04:43.748Z,1.70
2018-06-13T13:07:13.140Z,2.57
2018-06-13T13:09:42.449Z,2.80
2018-06-13T13:12:11.873Z,2.50
2018-06-13T13:14:41.300Z,2.90
2018-06-13T13:17:10.654Z,2.10
2018-06-13T13:19:39.988Z,3.00
2018-06-13T13:22:09.332Z,2.10
2018-06-13T13:24:38.730Z,2.80
2018-06-13T13:27:08.065Z,2.13
2018-06-13T13:29:37.401Z,2.43
2018-06-13T13:32:06.774Z,2.63
2018-06-13T13:34:36.126Z,2.73
2018-06-13T13:37:05.203Z,2.40
2018-06-13T13:39:34.531Z,2.43
2018-06-13T13:42:03.894Z,2.13
2018-06-13T13:44:33.233Z,1.97
2018-06-13T13:47:02.629Z,2.10
2018-06-13T13:49:31.960Z,1.60
2018-06-13T13:52:01.322Z,1.93
2018-06-13T13:54:30.717Z,1.70
2018-06-13T13:57:00.086Z,1.80
2018-06-13T13:59:29.447Z,1.80
2018-06-13T14:01:58.805Z,1.77
2018-06-13T14:04:28.238Z,1.20
2018-06-13T14:06:57.602Z,2.23
2018-06-13T14:09:26.967Z,1.30
2018-06-13T14:11:56.371Z,1.37
2018-06-13T14:14:25.684Z,1.33
2018-06-13T14:16:55.041Z,1.30
2018-06-13T14:19:24.380Z,1.23
2018-06-13T14:21:53.696Z,1.00
2018-06-13T14:24:23.039Z,1.33
2018-06-13T14:26:52.423Z,0.90
2018-06-13T14:29:21.783Z,1.03
2018-06-13T14:31:51.193Z,0.70
2018-06-13T14:34:20.545Z,0.80
2018-06-13T14:36:50.091Z,0.80
2018-06-13T14:39:19.425Z,1.20
2018-06-13T14:41:48.768Z,0.60
2018-06-13T14:44:18.099Z,0.90
2018-06-13T14:46:47.568Z,1.30
2018-06-13T14:49:16.928Z,0.87
2018-06-13T14:51:48.759Z,0.70
2018-06-13T14:54:18.084Z,0.80
2018-06-13T14:56:47.499Z,0.77
2018-06-13T14:59:16.811Z,1.37
2018-06-13T15:01:46.165Z,1.30
2018-06-13T15:04:19.779Z,0.87
2018-06-13T15:06:49.296Z,1.00
2018-06-13T15:09:18.626Z,0.90
2018-06-13T15:11:47.932Z,0.83
2018-06-13T15:14:17.288Z,0.90
2018-06-13T15:16:46.625Z,1.10
2018-06-13T15:19:15.995Z,0.73
2018-06-13T15:21:45.337Z,0.93
2018-06-13T15:24:14.752Z,0.90
2018-06-13T15:26:44.130Z,0.90
2018-06-13T15:29:13.686Z,1.13
2018-06-13T15:31:43.074Z,1.00
2018-06-13T15:34:12.394Z,1.50
2018-06-13T15:36:41.773Z,1.37
2018-06-13T15:39:13.240Z,1.40
2018-06-13T15:41:43.064Z,1.07
2018-06-13T15:44:12.458Z,1.10
2018-06-13T15:46:41.796Z,1.40
2018-06-13T15:49:11.238Z,0.97
2018-06-13T15:51:40.596Z,1.37
2018-06-13T15:54:09.939Z,1.27
2018-06-13T15:56:39.334Z,1.70
2018-06-13T15:59:08.653Z,1.50
2018-06-13T16:01:45.418Z,1.03
2018-06-13T16:04:14.734Z,1.40
2018-06-13T16:06:44.100Z,1.50
2018-06-13T16:09:13.469Z,1.50
2018-06-13T16:11:42.814Z,1.20
2018-06-13T16:14:12.244Z,1.10
2018-06-13T16:16:41.533Z,1.20
2018-06-13T16:19:10.888Z,1.20
2018-06-13T16:21:40.236Z,1.23
2018-06-13T16:24:09.568Z,1.30
2018-06-13T16:26:38.934Z,1.07
2018-06-13T16:29:08.332Z,1.40
2018-06-13T16:31:37.657Z,1.50
2018-06-13T16:34:07.047Z,1.30
2018-06-13T16:39:13.632Z,1.47
2018-06-13T16:41:43.000Z,1.07
2018-06-13T16:44:12.335Z,1.45
2018-06-13T16:46:41.668Z,1.00
2018-06-13T16:49:11.019Z,1.30
2018-06-13T16:51:53.619Z,1.10
2018-06-13T16:54:40.201Z,1.23
2018-06-13T16:57:12.977Z,1.20
2018-06-13T16:59:42.328Z,1.42
2018-06-13T17:02:11.733Z,1.40
2018-06-13T17:04:41.065Z,1.53
2018-06-13T17:07:10.417Z,1.27
2018-06-13T17:09:39.897Z,1.50
2018-06-13T17:12:09.256Z,1.30
2018-06-13T17:14:38.617Z,1.60
2018-06-13T17:17:11.425Z,1.47
2018-06-13T17:19:40.807Z,1.20
2018-06-13T17:22:10.212Z,1.70
2018-06-13T17:24:39.594Z,1.20
2018-06-13T17:27:09.029Z,1.37
2018-06-13T17:29:38.830Z,1.37
2018-06-13T17:32:08.300Z,1.10
2018-06-13T17:34:38.485Z,1.20
2018-06-13T17:37:07.957Z,1.47
2018-06-13T17:39:37.417Z,1.70
2018-06-13T17:42:06.954Z,1.20
2018-06-13T17:44:36.362Z,1.40
2018-06-13T17:47:06.400Z,1.97
2018-06-13T17:49:35.829Z,1.23
2018-06-13T17:52:05.564Z,1.60
2018-06-13T17:54:35.324Z,1.20
2018-06-13T17:57:05.051Z,1.40
2018-06-13T17:59:34.437Z,1.73
2018-06-13T18:02:03.831Z,1.77
2018-06-13T18:04:33.915Z,1.70
2018-06-13T18:07:03.682Z,1.97
2018-06-13T18:09:32.945Z,2.00
2018-06-13T18:12:02.798Z,1.50
2018-06-13T18:14:32.407Z,1.40
2018-06-13T18:17:02.423Z,1.93
2018-06-13T18:19:32.980Z,1.60
2018-06-13T18:22:03.472Z,1.23
2018-06-13T18:24:33.939Z,1.50
2018-06-13T18:27:05.135Z,1.60
2018-06-13T18:29:36.644Z,1.47
2018-06-13T18:32:08.288Z,1.70
2018-06-13T18:34:40.151Z,1.23
2018-06-13T18:37:11.968Z,1.43
2018-06-13T18:39:44.044Z,1.67
2018-06-13T18:42:15.768Z,1.60
2018-06-13T18:44:47.989Z,1.40
2018-06-13T18:47:20.018Z,1.60
2018-06-13T18:49:52.228Z,1.10
2018-06-13T18:52:24.262Z,1.30
2018-06-13T18:54:56.354Z,1.60
2018-06-13T18:57:28.633Z,1.53
2018-06-13T19:00:00.904Z,1.20
2018-06-13T19:02:32.900Z,1.37
2018-06-13T19:05:05.142Z,1.57
2018-06-13T19:07:37.367Z,1.50
2018-06-13T19:10:09.544Z,1.40
2018-06-13T19:12:41.617Z,1.83
2018-06-13T19:15:14.689Z,1.60
2018-06-13T19:17:46.763Z,1.70
2018-06-13T19:20:18.941Z,1.70
2018-06-13T19:22:51.198Z,1.63
2018-06-13T19:25:23.463Z,1.60
2018-06-13T19:27:55.688Z,1.67
2018-06-13T19:30:27.911Z,1.77
2018-06-13T19:32:59.997Z,1.67
2018-06-13T19:35:32.250Z,1.37
2018-06-13T19:38:04.355Z,1.47
2018-06-13T19:40:36.593Z,1.80
2018-06-13T19:43:45.538Z,1.57
2018-06-13T19:46:17.738Z,1.50
2018-06-13T19:48:51.802Z,1.40
2018-06-13T19:51:23.976Z,1.73
2018-06-13T19:54:00.771Z,1.50
2018-06-13T19:56:33.743Z,1.67
2018-06-13T19:59:05.831Z,1.60
2018-06-13T20:01:38.076Z,1.30
2018-06-13T20:04:14.822Z,1.70
2018-06-13T20:06:47.145Z,1.20
2018-06-13T20:09:19.246Z,1.13
2018-06-13T20:11:51.376Z,1.43
2018-06-13T20:14:28.063Z,1.30
2018-06-13T20:17:05.003Z,1.30
2018-06-13T20:19:39.075Z,1.67
2018-06-13T20:22:11.345Z,1.07
2018-06-13T20:24:47.177Z,1.27
2018-06-13T20:27:24.013Z,1.40
2018-06-13T20:30:00.635Z,1.05
2018-06-13T20:32:32.765Z,0.93
2018-06-13T20:35:04.860Z,0.93
2018-06-13T20:37:37.076Z,1.17
2018-06-13T20:40:09.309Z,1.67
2018-06-13T20:42:41.402Z,1.03
2018-06-13T20:45:13.545Z,1.50
2018-06-13T20:47:45.722Z,1.13
2018-06-13T20:50:17.774Z,1.57
2018-06-13T20:52:49.771Z,1.27
2018-06-13T20:55:20.210Z,1.77
2018-06-13T20:57:49.772Z,1.00
2018-06-13T21:00:19.142Z,1.10
2018-06-13T21:02:49.219Z,1.27
2018-06-13T21:05:19.283Z,1.10
2018-06-13T21:07:48.916Z,1.10
2018-06-13T21:10:18.425Z,1.43
2018-06-13T21:12:48.040Z,1.30
2018-06-13T21:15:17.516Z,1.27
2018-06-13T21:17:46.917Z,1.10
2018-06-13T21:20:16.258Z,1.30
2018-06-13T21:22:45.608Z,1.40
2018-06-13T21:25:15.009Z,1.50
2018-06-13T21:27:44.370Z,1.40
2018-06-13T21:30:14.567Z,1.60
2018-06-13T21:32:44.037Z,1.30
2018-06-13T21:35:13.399Z,1.10
2018-06-13T21:37:42.749Z,1.37
2018-06-13T21:40:12.185Z,1.40
2018-06-13T21:42:41.483Z,1.47
2018-06-13T21:45:10.820Z,1.43
2018-06-13T21:47:39.891Z,1.70
2018-06-13T21:50:09.251Z,1.30
2018-06-13T21:52:38.575Z,1.40
2018-06-13T21:55:07.979Z,1.50
2018-06-13T21:57:37.316Z,1.77
2018-06-13T22:00:10.193Z,1.30
2018-06-13T22:02:39.637Z,1.47
2018-06-13T22:05:09.036Z,1.40
2018-06-13T22:07:38.441Z,1.47
2018-06-13T22:10:07.797Z,1.47
2018-06-13T22:12:37.129Z,1.63
2018-06-13T22:15:10.553Z,1.50
2018-06-13T22:17:39.879Z,1.83
2018-06-13T22:20:09.259Z,1.57
2018-06-13T22:22:38.604Z,1.50
2018-06-13T22:25:07.959Z,1.80
2018-06-13T22:27:37.398Z,1.90
2018-06-13T22:30:06.838Z,2.20
2018-06-13T22:32:36.120Z,1.90
2018-06-13T22:35:05.461Z,1.40
2018-06-13T22:37:35.062Z,1.97
2018-06-13T22:40:04.529Z,1.45
2018-06-13T22:42:33.920Z,1.63
2018-06-13T22:45:03.352Z,1.97
2018-06-13T22:47:32.829Z,1.77
2018-06-13T22:50:02.184Z,2.00
2018-06-13T22:52:31.540Z,2.00
2018-06-13T22:55:00.885Z,1.87
2018-06-13T22:57:30.207Z,1.93
2018-06-13T22:59:59.637Z,2.20
2018-06-13T23:02:28.973Z,2.60
2018-06-13T23:04:58.306Z,2.00
2018-06-13T23:07:27.664Z,2.00
2018-06-13T23:09:57.036Z,2.70
2018-06-13T23:12:26.412Z,2.37
2018-06-13T23:14:55.761Z,2.10
2018-06-13T23:17:25.113Z,1.83
2018-06-13T23:19:54.517Z,1.60
2018-06-13T23:22:23.925Z,2.13
2018-06-13T23:24:53.281Z,1.80
2018-06-13T23:27:22.650Z,2.10
2018-06-13T23:29:52.156Z,1.60
2018-06-13T23:32:21.536Z,1.87
2018-06-13T23:34:50.888Z,1.70
2018-06-13T23:37:20.282Z,2.37
2018-06-13T23:39:50.617Z,1.80
2018-06-13T23:42:20.009Z,1.60
2018-06-13T23:54:41.047Z,2.70
2018-06-13T23:57:10.409Z,1.62
2018-06-13T23:59:39.770Z,1.97
